createdAt,value
2023-01-08T00:01:21.087Z,3.07
2023-01-08T00:03:50.328Z,2.99
2023-01-08T00:06:21.514Z,3.04
2023-01-08T00:08:50.302Z,2.98
2023-01-08T00:11:19.353Z,2.89
2023-01-08T00:13:48.045Z,3.00
2023-01-08T00:16:20.708Z,3.05
2023-01-08T00:18:50.144Z,2.91
2023-01-08T00:21:19.034Z,2.84
2023-01-08T00:23:48.377Z,2.85
2023-01-08T00:26:17.160Z,3.03
2023-01-08T00:28:45.904Z,2.93
2023-01-08T00:31:15.392Z,3.05
2023-01-08T00:33:45.716Z,3.09
2023-01-08T00:36:18.794Z,3.17
2023-01-08T00:38:48.914Z,3.19
2023-01-08T00:41:18.602Z,3.26
2023-01-08T00:43:47.365Z,3.25
2023-01-08T00:46:16.189Z,3.17
2023-01-08T00:49:03.568Z,3.11
2023-01-08T00:51:32.239Z,3.12
2023-01-08T00:54:01.258Z,3.03
2023-01-08T00:56:29.985Z,3.07
2023-01-08T00:58:58.781Z,2.99
2023-01-08T01:01:27.592Z,3.11
2023-01-08T01:03:56.767Z,3.11
2023-01-08T01:06:26.964Z,3.24
2023-01-08T01:08:57.210Z,3.30
2023-01-08T01:11:29.015Z,3.26
2023-01-08T01:13:58.763Z,3.28
2023-01-08T01:16:28.067Z,3.28
2023-01-08T01:18:57.785Z,3.34
2023-01-08T01:21:31.438Z,3.39
2023-01-08T01:24:03.116Z,3.40
2023-01-08T01:26:33.710Z,3.29
2023-01-08T01:29:02.754Z,3.29
2023-01-08T01:31:35.744Z,3.29
2023-01-08T01:34:04.630Z,3.32
2023-01-08T01:36:34.734Z,3.23
2023-01-08T01:39:03.539Z,3.28
2023-01-08T01:41:37.898Z,3.22
2023-01-08T01:44:40.628Z,3.09
2023-01-08T01:47:22.619Z,3.17
2023-01-08T01:49:59.090Z,3.07
2023-01-08T01:52:33.385Z,2.98
2023-01-08T01:55:04.477Z,3.07
2023-01-08T01:57:35.004Z,3.16
2023-01-08T02:00:09.161Z,3.13
2023-01-08T02:02:41.049Z,3.14
2023-01-08T02:05:11.309Z,3.15
2023-01-08T02:07:49.911Z,3.20
2023-01-08T02:10:31.049Z,3.24
2023-01-08T02:13:09.639Z,3.25
2023-01-08T02:15:53.025Z,3.05
2023-01-08T02:18:30.316Z,2.86
2023-01-08T02:21:09.092Z,2.83
2023-01-08T02:23:50.614Z,2.84
2023-01-08T02:26:27.831Z,2.89
2023-01-08T02:29:04.152Z,2.95
2023-01-08T02:31:35.237Z,2.96
2023-01-08T02:34:04.267Z,2.92
2023-01-08T02:36:39.341Z,2.82
2023-01-08T02:39:46.934Z,2.78
2023-01-08T02:42:33.831Z,2.92
2023-01-08T02:45:14.732Z,3.01
2023-01-08T02:47:48.356Z,2.92
2023-01-08T02:50:27.525Z,2.79
2023-01-08T02:53:05.165Z,2.90
2023-01-08T02:55:37.762Z,2.90
2023-01-08T02:58:08.691Z,2.88
2023-01-08T03:00:38.615Z,2.85
2023-01-08T03:03:14.053Z,2.91
2023-01-08T03:05:47.516Z,2.95
2023-01-08T03:08:51.657Z,2.90
2023-01-08T03:11:22.961Z,2.84
2023-01-08T03:14:01.732Z,2.88
2023-01-08T03:16:37.692Z,2.90
2023-01-08T03:19:14.327Z,2.82
2023-01-08T03:21:46.482Z,2.82
2023-01-08T03:24:27.929Z,2.75
2023-01-08T03:27:04.033Z,2.83
2023-01-08T03:29:37.173Z,2.84
2023-01-08T03:32:13.308Z,2.63
2023-01-08T03:34:53.491Z,2.82
2023-01-08T03:37:29.857Z,2.81
2023-01-08T03:40:05.799Z,2.68
2023-01-08T03:42:34.726Z,2.71
2023-01-08T03:45:05.661Z,2.82
2023-01-08T03:47:37.514Z,2.91
2023-01-08T03:50:15.532Z,2.94
2023-01-08T03:52:44.247Z,2.99
2023-01-08T03:55:12.997Z,3.05
2023-01-08T03:57:41.785Z,3.00
2023-01-08T04:00:14.083Z,3.03
2023-01-08T04:02:44.068Z,3.05
2023-01-08T04:05:13.305Z,3.13
2023-01-08T04:07:42.137Z,3.21
2023-01-08T04:10:11.212Z,3.22
2023-01-08T04:12:39.882Z,3.04
2023-01-08T04:15:09.844Z,3.18
2023-01-08T04:17:40.117Z,3.24
2023-01-08T04:20:10.525Z,3.28
2023-01-08T04:22:39.273Z,3.29
2023-01-08T04:25:08.767Z,3.33
2023-01-08T04:27:37.504Z,3.38
2023-01-08T04:30:07.514Z,3.38
2023-01-08T04:32:36.220Z,3.37
2023-01-08T04:35:07.489Z,3.32
2023-01-08T04:37:36.169Z,3.29
2023-01-08T04:40:05.722Z,3.17
2023-01-08T04:42:34.468Z,3.31
2023-01-08T04:45:03.203Z,3.37
2023-01-08T04:47:31.955Z,3.28
2023-01-08T04:50:00.674Z,3.30
2023-01-08T04:52:31.420Z,3.35
2023-01-08T04:55:00.276Z,3.32
2023-01-08T04:57:30.036Z,3.36
2023-01-08T05:00:00.144Z,3.35
2023-01-08T05:02:29.230Z,3.31
2023-01-08T05:04:58.223Z,3.31
2023-01-08T05:07:26.989Z,3.31
2023-01-08T05:09:57.256Z,3.21
2023-01-08T05:12:26.005Z,3.03
2023-01-08T05:14:54.770Z,3.12
2023-01-08T05:17:23.649Z,3.17
2023-01-08T05:19:52.353Z,2.99
2023-01-08T05:22:21.075Z,3.08
2023-01-08T05:24:50.831Z,3.18
2023-01-08T05:27:21.002Z,3.22
2023-01-08T05:29:51.140Z,3.25
2023-01-08T05:32:20.775Z,3.27
2023-01-08T05:34:49.471Z,3.07
2023-01-08T05:37:18.156Z,3.15
2023-01-08T05:39:47.051Z,3.20
2023-01-08T05:42:16.884Z,3.19
2023-01-08T05:44:48.103Z,3.24
2023-01-08T05:47:16.949Z,3.23
2023-01-08T05:49:46.721Z,3.26
2023-01-08T05:52:15.409Z,3.04
2023-01-08T05:54:44.173Z,3.16
2023-01-08T05:57:13.070Z,3.20
2023-01-08T05:59:41.809Z,3.07
2023-01-08T06:02:11.910Z,3.05
2023-01-08T06:04:40.840Z,3.05
2023-01-08T06:07:09.591Z,3.09
2023-01-08T06:09:44.018Z,3.14
2023-01-08T06:12:12.829Z,2.99
2023-01-08T06:14:41.586Z,2.99
2023-01-08T06:17:13.423Z,3.14
2023-01-08T06:19:42.473Z,3.10
2023-01-08T06:22:11.805Z,3.11
2023-01-08T06:24:48.904Z,3.04
2023-01-08T06:27:18.190Z,3.14
2023-01-08T06:29:46.947Z,3.10
2023-01-08T06:32:17.046Z,3.19
2023-01-08T06:34:45.850Z,3.07
2023-01-08T06:37:14.772Z,2.98
2023-01-08T06:39:44.716Z,3.05
2023-01-08T06:42:16.748Z,3.11
2023-01-08T06:44:49.623Z,3.12
2023-01-08T06:47:19.853Z,3.12
2023-01-08T06:49:48.591Z,3.26
2023-01-08T06:52:17.748Z,3.28
2023-01-08T06:54:47.492Z,3.29
2023-01-08T06:57:18.772Z,3.40
2023-01-08T06:59:47.635Z,3.49
2023-01-08T07:02:18.539Z,3.57
2023-01-08T07:04:51.144Z,3.61
2023-01-08T07:07:22.013Z,3.67
2023-01-08T07:09:51.183Z,3.64
2023-01-08T07:12:21.581Z,3.57
2023-01-08T07:14:50.797Z,3.63
2023-01-08T07:17:19.864Z,3.73
2023-01-08T07:19:50.352Z,3.82
2023-01-08T07:22:20.317Z,3.84
2023-01-08T07:24:50.286Z,3.88
2023-01-08T07:27:19.229Z,3.88
2023-01-08T07:29:48.192Z,3.94
2023-01-08T07:32:18.077Z,4.00
2023-01-08T07:34:47.029Z,4.01
2023-01-08T07:37:17.450Z,4.07
2023-01-08T07:39:48.506Z,4.10
2023-01-08T07:42:18.556Z,4.09
2023-01-08T07:44:47.669Z,4.16
2023-01-08T07:47:16.776Z,4.22
2023-01-08T07:49:46.401Z,4.23
2023-01-08T07:52:17.041Z,4.20
2023-01-08T07:54:46.291Z,4.27
2023-01-08T07:57:15.601Z,4.34
2023-01-08T07:59:44.721Z,4.39
2023-01-08T08:02:14.061Z,4.36
2023-01-08T08:04:42.956Z,4.41
2023-01-08T08:07:11.962Z,4.49
2023-01-08T08:09:42.473Z,4.57
2023-01-08T08:12:12.378Z,4.66
2023-01-08T08:14:41.292Z,4.71
2023-01-08T08:17:10.196Z,4.76
2023-01-08T08:19:38.998Z,4.82
2023-01-08T08:22:07.960Z,4.87
2023-01-08T08:24:39.103Z,4.93
2023-01-08T08:27:09.379Z,4.97
2023-01-08T08:29:49.685Z,5.05
2023-01-08T08:32:18.489Z,5.12
2023-01-08T08:34:50.786Z,5.13
2023-01-08T08:37:19.731Z,5.16
2023-01-08T08:39:49.811Z,5.24
2023-01-08T08:42:20.608Z,5.29
2023-01-08T08:44:50.155Z,5.33
2023-01-08T08:47:19.239Z,5.39
2023-01-08T08:49:48.192Z,5.41
2023-01-08T08:52:17.688Z,5.48
2023-01-08T08:54:47.172Z,5.54
2023-01-08T09:02:19.742Z,5.70
2023-01-08T09:04:47.543Z,5.73
2023-01-08T09:07:15.112Z,5.79
2023-01-08T09:09:42.787Z,5.82
2023-01-08T09:12:11.620Z,5.85
2023-01-08T09:14:40.472Z,5.87
2023-01-08T09:17:09.671Z,5.91
2023-01-08T09:19:40.238Z,5.94
2023-01-08T09:22:11.992Z,5.98
2023-01-08T09:24:40.893Z,6.01
2023-01-08T09:27:11.122Z,6.05
2023-01-08T09:29:39.924Z,6.06
2023-01-08T09:32:09.897Z,6.11
2023-01-08T09:34:39.957Z,6.14
2023-01-08T09:37:08.839Z,6.15
2023-01-08T09:39:38.059Z,6.18
2023-01-08T09:42:09.285Z,6.26
2023-01-08T09:44:43.039Z,6.32
2023-01-08T09:47:28.832Z,6.39
2023-01-08T09:50:03.463Z,6.41
2023-01-08T09:52:34.098Z,6.43
2023-01-08T09:55:10.824Z,6.49
2023-01-08T09:57:39.817Z,6.53
2023-01-08T10:00:17.005Z,6.58
2023-01-08T10:02:46.677Z,6.62
2023-01-08T10:05:19.716Z,6.67
2023-01-08T10:07:52.674Z,6.74
2023-01-08T10:10:29.367Z,6.78
2023-01-08T10:13:00.191Z,6.83
2023-01-08T10:15:29.087Z,6.89
2023-01-08T10:18:04.856Z,6.96
2023-01-08T10:20:35.841Z,6.96
2023-01-08T10:23:13.931Z,7.05
2023-01-08T10:25:56.075Z,7.12
2023-01-08T10:28:27.917Z,7.09
2023-01-08T10:31:09.214Z,7.16
2023-01-08T10:33:45.284Z,7.20
2023-01-08T10:36:20.538Z,7.23
2023-01-08T10:38:57.138Z,7.28
2023-01-08T10:41:27.652Z,7.35
2023-01-08T10:44:01.281Z,7.36
2023-01-08T10:46:35.956Z,7.39
2023-01-08T10:49:07.964Z,7.45
2023-01-08T10:51:38.051Z,7.50
2023-01-08T10:54:24.648Z,7.49
2023-01-08T10:56:53.688Z,7.52
2023-01-08T10:59:23.188Z,7.57
2023-01-08T11:01:56.184Z,7.63
2023-01-08T11:04:32.547Z,7.67
2023-01-08T11:07:06.847Z,7.71
2023-01-08T11:09:43.261Z,7.74
2023-01-08T11:12:43.611Z,7.80
2023-01-08T11:15:34.212Z,7.83
2023-01-08T11:18:20.869Z,7.81
2023-01-08T11:20:51.386Z,7.80
2023-01-08T11:23:25.119Z,7.84
2023-01-08T11:26:03.559Z,7.86
2023-01-08T11:28:48.138Z,7.90
2023-01-08T11:31:29.648Z,7.91
2023-01-08T11:34:11.588Z,7.92
2023-01-08T11:36:51.456Z,7.89
2023-01-08T11:39:21.651Z,7.92
2023-01-08T11:42:16.385Z,7.91
2023-01-08T11:45:03.083Z,7.86
2023-01-08T11:47:55.231Z,7.84
2023-01-08T11:50:29.489Z,7.86
2023-01-08T11:53:20.735Z,7.87
2023-01-08T11:56:09.842Z,7.87
2023-01-08T11:59:00.316Z,7.86
2023-01-08T12:01:56.083Z,7.91
2023-01-08T12:04:57.923Z,7.99
2023-01-08T12:07:40.222Z,8.03
2023-01-08T12:10:21.524Z,8.06
2023-01-08T12:13:11.833Z,8.07
2023-01-08T12:16:03.108Z,8.09
2023-01-08T12:18:56.417Z,8.13
2023-01-08T12:21:45.832Z,8.15
2023-01-08T12:24:40.051Z,8.15
2023-01-08T12:27:29.776Z,8.13
2023-01-08T12:30:27.337Z,8.14
2023-01-08T12:33:04.170Z,8.10
2023-01-08T12:35:42.082Z,8.12
2023-01-08T12:38:20.272Z,8.16
2023-01-08T12:40:53.969Z,8.16
2023-01-08T12:43:29.941Z,8.20
2023-01-08T12:46:03.672Z,8.21
2023-01-08T12:48:36.686Z,8.22
2023-01-08T12:51:18.263Z,8.24
2023-01-08T12:54:03.843Z,8.25
2023-01-08T12:56:44.479Z,8.18
2023-01-08T12:59:33.750Z,8.20
2023-01-08T13:02:19.999Z,8.29
2023-01-08T13:04:49.990Z,8.23
2023-01-08T13:07:24.378Z,8.27
2023-01-08T13:09:58.798Z,8.20
2023-01-08T13:12:37.310Z,8.26
2023-01-08T13:15:09.384Z,8.21
2023-01-08T13:17:39.746Z,8.20
2023-01-08T13:20:10.430Z,8.25
2023-01-08T13:22:53.831Z,8.31
2023-01-08T13:25:33.642Z,8.33
2023-01-08T13:28:03.696Z,8.34
2023-01-08T13:30:42.678Z,8.31
2023-01-08T13:33:41.429Z,8.29
2023-01-08T13:36:24.073Z,8.28
2023-01-08T13:39:23.335Z,8.30
2023-01-08T13:42:04.327Z,8.29
2023-01-08T13:44:40.283Z,8.29
2023-01-08T13:47:23.376Z,8.24
2023-01-08T13:49:56.402Z,8.25
2023-01-08T13:52:50.464Z,8.24
2023-01-08T13:55:25.444Z,8.22
2023-01-08T13:57:59.931Z,8.14
2023-01-08T14:00:46.617Z,8.15
2023-01-08T14:03:30.887Z,8.11
2023-01-08T14:06:17.072Z,8.09
2023-01-08T14:08:55.610Z,8.09
2023-01-08T14:11:30.784Z,7.99
2023-01-08T14:14:00.353Z,7.95
2023-01-08T14:16:33.525Z,7.99
2023-01-08T14:19:06.068Z,7.96
2023-01-08T14:21:36.630Z,7.96
2023-01-08T14:24:08.326Z,7.96
2023-01-08T14:26:39.933Z,7.90
2023-01-08T14:29:22.959Z,7.91
2023-01-08T14:31:56.386Z,7.92
2023-01-08T14:37:32.093Z,7.88
2023-01-08T14:40:02.074Z,7.85
2023-01-08T14:42:47.562Z,7.82
2023-01-08T14:45:22.744Z,7.79
2023-01-08T14:47:55.586Z,7.78
2023-01-08T14:50:29.095Z,7.79
2023-01-08T14:53:08.707Z,7.73
2023-01-08T14:55:46.079Z,7.74
2023-01-08T14:58:19.891Z,7.72
2023-01-08T15:00:56.030Z,7.72
2023-01-08T15:03:37.379Z,7.69
2023-01-08T15:06:07.516Z,7.65
2023-01-08T15:08:41.170Z,7.61
2023-01-08T15:11:23.135Z,7.54
2023-01-08T15:13:54.185Z,7.45
2023-01-08T15:16:30.475Z,7.49
2023-01-08T15:19:06.680Z,7.46
2023-01-08T15:21:36.898Z,7.48
2023-01-08T15:24:09.003Z,7.42
2023-01-08T15:26:44.333Z,7.34
2023-01-08T15:29:21.432Z,7.38
2023-01-08T15:31:51.155Z,7.35
2023-01-08T15:34:21.916Z,7.39
2023-01-08T15:36:51.225Z,7.37
2023-01-08T15:39:21.926Z,7.42
2023-01-08T15:42:09.091Z,7.39
2023-01-08T15:44:38.195Z,7.37
2023-01-08T15:47:06.894Z,7.36
2023-01-08T15:49:35.993Z,7.38
2023-01-08T15:52:05.135Z,7.39
2023-01-08T15:54:35.412Z,7.36
2023-01-08T15:57:04.111Z,7.35
2023-01-08T15:59:36.270Z,7.21
2023-01-08T16:02:05.270Z,7.23
2023-01-08T16:04:34.827Z,7.14
2023-01-08T16:07:04.985Z,7.21
2023-01-08T16:09:35.535Z,7.19
2023-01-08T16:12:05.819Z,7.19
2023-01-08T16:14:38.049Z,7.19
2023-01-08T16:17:07.354Z,7.19
2023-01-08T16:19:36.184Z,7.18
2023-01-08T16:22:05.331Z,7.08
2023-01-08T16:24:35.435Z,7.06
2023-01-08T16:27:04.107Z,7.08
2023-01-08T16:29:32.803Z,7.06
2023-01-08T16:32:01.730Z,7.01
2023-01-08T16:34:30.937Z,6.95
2023-01-08T16:36:59.663Z,7.04
2023-01-08T16:39:28.949Z,6.98
2023-01-08T16:41:59.048Z,6.96
2023-01-08T16:44:29.689Z,6.92
2023-01-08T16:47:01.171Z,6.95
2023-01-08T16:49:30.345Z,7.01
2023-01-08T16:51:59.034Z,6.99
2023-01-08T16:54:32.220Z,6.97
2023-01-08T16:57:02.524Z,6.91
2023-01-08T16:59:33.053Z,6.90
2023-01-08T17:02:07.809Z,6.91
2023-01-08T17:04:36.782Z,6.77
2023-01-08T17:07:05.563Z,6.80
2023-01-08T17:09:35.079Z,6.68
2023-01-08T17:12:05.988Z,6.70
2023-01-08T17:14:35.580Z,6.69
2023-01-08T17:17:04.240Z,6.72
2023-01-08T17:19:33.968Z,6.74
2023-01-08T17:22:02.658Z,6.78
2023-01-08T17:24:31.488Z,6.83
2023-01-08T17:27:00.282Z,6.84
2023-01-08T17:29:30.440Z,6.88
2023-01-08T17:31:59.269Z,6.85
2023-01-08T17:34:28.093Z,6.86
2023-01-08T17:36:57.514Z,6.82
2023-01-08T17:39:26.761Z,6.82
2023-01-08T17:42:13.423Z,6.74
2023-01-08T17:44:44.736Z,6.76
2023-01-08T17:47:13.492Z,6.72
2023-01-08T17:49:42.343Z,6.62
2023-01-08T17:52:12.180Z,6.63
2023-01-08T17:54:41.259Z,6.66
2023-01-08T17:57:12.651Z,6.64
2023-01-08T17:59:42.950Z,6.56
2023-01-08T18:02:39.179Z,6.49
2023-01-08T18:05:18.899Z,6.53
2023-01-08T18:07:48.207Z,6.49
2023-01-08T18:10:17.275Z,6.42
2023-01-08T18:12:46.460Z,6.37
2023-01-08T18:15:23.388Z,6.32
2023-01-08T18:17:52.913Z,6.34
2023-01-08T18:20:22.989Z,6.30
2023-01-08T18:22:54.383Z,6.15
2023-01-08T18:25:23.725Z,6.10
2023-01-08T18:27:53.178Z,6.07
2023-01-08T18:30:29.405Z,6.02
2023-01-08T18:33:00.643Z,6.03
2023-01-08T18:35:30.981Z,6.05
2023-01-08T18:38:03.066Z,5.96
2023-01-08T18:40:34.066Z,5.97
2023-01-08T18:43:02.813Z,5.85
2023-01-08T18:45:35.410Z,5.91
2023-01-08T18:48:05.059Z,5.93
2023-01-08T18:50:35.821Z,5.87
2023-01-08T18:53:06.047Z,5.82
2023-01-08T18:55:35.399Z,5.80
2023-01-08T18:58:04.753Z,5.78
2023-01-08T19:00:37.437Z,5.74
2023-01-08T19:03:09.218Z,5.67
2023-01-08T19:05:43.004Z,5.70
2023-01-08T19:08:12.838Z,5.72
2023-01-08T19:10:42.568Z,5.71
2023-01-08T19:13:11.520Z,5.73
2023-01-08T19:15:43.067Z,5.74
2023-01-08T19:18:12.879Z,5.70
2023-01-08T19:20:43.713Z,5.64
2023-01-08T19:23:15.332Z,5.68
2023-01-08T19:25:45.912Z,5.72
2023-01-08T19:28:17.307Z,5.72
2023-01-08T19:31:02.759Z,5.63
2023-01-08T19:33:35.780Z,5.60
2023-01-08T19:36:13.093Z,5.68
2023-01-08T19:38:44.465Z,5.75
2023-01-08T19:41:33.718Z,5.81
2023-01-08T19:44:07.769Z,5.84
2023-01-08T19:46:40.190Z,5.85
2023-01-08T19:49:11.651Z,5.82
2023-01-08T19:51:41.261Z,5.87
2023-01-08T19:54:15.573Z,5.90
2023-01-08T19:56:50.269Z,5.79
2023-01-08T19:59:20.503Z,5.80
2023-01-08T20:01:51.840Z,5.84
2023-01-08T20:04:35.933Z,5.90
2023-01-08T20:07:05.430Z,5.94
2023-01-08T20:09:36.172Z,5.94
2023-01-08T20:12:07.365Z,5.88
2023-01-08T20:14:39.669Z,5.93
2023-01-08T20:17:12.135Z,5.98
2023-01-08T20:19:43.052Z,5.95
2023-01-08T20:22:12.460Z,6.02
2023-01-08T20:24:42.225Z,6.05
2023-01-08T20:27:12.185Z,5.94
2023-01-08T20:29:42.593Z,5.90
2023-01-08T20:32:13.317Z,5.97
2023-01-08T20:34:43.367Z,5.95
2023-01-08T20:37:14.175Z,5.85
2023-01-08T20:39:47.444Z,5.78
2023-01-08T20:42:32.879Z,5.83
2023-01-08T20:45:02.732Z,5.87
2023-01-08T20:47:37.426Z,5.90
2023-01-08T20:50:19.969Z,5.90
2023-01-08T20:52:51.613Z,5.87
2023-01-08T20:55:23.259Z,5.85
2023-01-08T20:57:53.553Z,5.84
2023-01-08T21:00:25.838Z,5.77
2023-01-08T21:02:59.193Z,5.53
2023-01-08T21:05:28.430Z,5.67
2023-01-08T21:11:52.563Z,5.73
2023-01-08T21:14:21.412Z,5.72
2023-01-08T21:16:50.410Z,5.64
2023-01-08T21:19:20.975Z,5.64
2023-01-08T21:21:53.658Z,5.61
2023-01-08T21:24:22.930Z,5.48
2023-01-08T21:26:55.001Z,5.49
2023-01-08T21:29:23.709Z,5.52
2023-01-08T21:31:52.626Z,5.25
2023-01-08T21:34:22.905Z,5.27
2023-01-08T21:36:57.463Z,5.31
2023-01-08T21:39:26.250Z,5.32
2023-01-08T21:42:26.636Z,5.32
2023-01-08T21:45:12.743Z,5.30
2023-01-08T21:47:41.653Z,5.29
2023-01-08T21:50:13.318Z,5.29
2023-01-08T21:52:59.277Z,5.30
2023-01-08T21:55:27.976Z,5.18
2023-01-08T21:57:56.625Z,5.03
2023-01-08T22:00:38.076Z,5.05
2023-01-08T22:03:06.782Z,5.06
2023-01-08T22:05:36.968Z,5.03
2023-01-08T22:08:06.971Z,4.91
2023-01-08T22:10:35.736Z,5.05
2023-01-08T22:13:04.425Z,5.14
2023-01-08T22:15:33.653Z,5.14
2023-01-08T22:18:02.399Z,5.17
2023-01-08T22:20:31.192Z,5.19
2023-01-08T22:23:01.359Z,5.03
2023-01-08T22:25:30.195Z,5.11
2023-01-08T22:27:58.941Z,4.94
2023-01-08T22:30:27.816Z,4.96
2023-01-08T22:32:56.570Z,4.95
2023-01-08T22:35:25.410Z,5.00
2023-01-08T22:39:17.729Z,5.10
2023-01-08T22:41:47.950Z,5.18
2023-01-08T22:44:17.089Z,5.20
2023-01-08T22:46:45.780Z,5.13
2023-01-08T22:49:17.041Z,5.08
2023-01-08T22:51:45.796Z,4.96
2023-01-08T22:54:17.442Z,4.89
2023-01-08T22:59:07.595Z,5.02
2023-01-08T23:02:08.415Z,4.92
2023-01-08T23:04:37.105Z,4.91
2023-01-08T23:07:05.846Z,4.95
2023-01-08T23:09:34.559Z,5.06
2023-01-08T23:12:03.432Z,5.05
2023-01-08T23:14:48.950Z,5.16
2023-01-08T23:17:17.695Z,5.11
2023-01-08T23:19:46.551Z,5.08
2023-01-08T23:22:15.238Z,5.15
2023-01-08T23:24:44.030Z,5.05
2023-01-08T23:27:12.743Z,5.14
2023-01-08T23:29:41.437Z,5.16
2023-01-08T23:32:14.275Z,5.14
2023-01-08T23:34:43.372Z,5.13
2023-01-08T23:37:12.077Z,5.06
2023-01-08T23:39:41.056Z,5.09
2023-01-08T23:42:09.870Z,5.14
2023-01-08T23:44:39.901Z,5.19
2023-01-08T23:47:10.440Z,5.19
2023-01-08T23:49:41.695Z,5.21
2023-01-08T23:52:11.390Z,5.22
2023-01-08T23:54:40.318Z,5.26
2023-01-08T23:57:09.014Z,5.27
2023-01-08T23:59:37.696Z,5.26
